Time;durP1;ratioP1;P1;durP2;ratioP2;P2;SDS_P1;SDS_P2;PMS_P1;PMS_P2;Temp;Humidity;BMP_temperature;BMP_pressure;BME280_temperature;BME280_humidity;BME280_pressure;Samples;Min_cycle;Max_cycle;Signal;HPM_P1;HPM_P2
2023/12/23 00:02:00;;;;;;;;;;;5.50;99.90;;;;;;5051200;28;19990;-35
2023/12/23 00:04:28;;;;;;;;;;;5.50;99.90;;;;;;5067361;28;20342;-35
2023/12/23 00:06:54;;;;;;;;;;;5.50;99.90;;;;;;5050430;28;19982;-35
2023/12/23 00:09:21;;;;;;;;;;;5.50;99.90;;;;;;5053493;28;19937;-34
2023/12/23 00:11:49;;;;;;;;;;;5.50;99.90;;;;;;5052424;28;19945;-34
2023/12/23 00:14:15;;;;;;;;;;;5.50;99.90;;;;;;5064274;28;20081;-35
2023/12/23 00:16:42;;;;;;;;;;;5.60;99.90;;;;;;5051922;28;19989;-34
2023/12/23 00:19:09;;;;;;;;;;;5.60;99.90;;;;;;5051750;28;19965;-34
2023/12/23 00:21:37;;;;;;;;;;;5.60;99.90;;;;;;5074641;28;20329;-40
2023/12/23 00:24:04;;;;;;;;;;;5.50;99.90;;;;;;5072515;28;19940;-35
2023/12/23 00:26:31;;;;;;;;;;;5.50;99.90;;;;;;5052492;28;19985;-35
2023/12/23 00:28:57;;;;;;;;;;;5.60;99.90;;;;;;5059756;28;19976;-35
2023/12/23 00:31:24;;;;;;;;;;;5.60;99.90;;;;;;5060372;28;19944;-34
2023/12/23 00:33:50;;;;;;;;;;;5.60;99.90;;;;;;5078037;28;19962;-35
2023/12/23 00:36:17;;;;;;;;;;;5.60;99.90;;;;;;5059073;28;19949;-34
2023/12/23 00:38:45;;;;;;;;;;;5.60;99.90;;;;;;5057338;28;20456;-34
2023/12/23 00:41:12;;;;;;;;;;;5.60;99.90;;;;;;5079330;28;20348;-33
2023/12/23 00:43:39;;;;;;;;;;;5.70;99.90;;;;;;5092723;28;20663;-36
2023/12/23 00:46:05;;;;;;;;;;;5.70;99.90;;;;;;5063418;28;20002;-36
2023/12/23 00:48:32;;;;;;;;;;;5.70;99.90;;;;;;5057230;28;19982;-35
2023/12/23 00:50:59;;;;;;;;;;;5.70;99.90;;;;;;5058054;28;20388;-36
2023/12/23 00:53:26;;;;;;;;;;;5.70;99.90;;;;;;5057732;28;20002;-34
2023/12/23 00:55:54;;;;;;;;;;;5.80;99.90;;;;;;5056391;28;19939;-34
2023/12/23 00:58:21;;;;;;;;;;;5.70;99.90;;;;;;5056967;28;19943;-34
2023/12/23 01:00:47;;;;;;;;;;;5.80;99.90;;;;;;5063368;28;20389;-34
2023/12/23 01:03:14;;;;;;;;;;;5.80;99.90;;;;;;5060281;28;19938;-35
2023/12/23 01:05:41;;;;;;;;;;;5.80;99.90;;;;;;5058020;28;19946;-34
2023/12/23 01:08:07;;;;;;;;;;;5.80;99.90;;;;;;5056778;28;19939;-35
2023/12/23 01:10:34;;;;;;;;;;;5.90;99.90;;;;;;5069621;28;19995;-33
2023/12/23 01:13:02;;;;;;;;;;;5.80;99.90;;;;;;5065834;28;20047;-35
2023/12/23 01:15:28;;;;;;;;;;;5.80;99.90;;;;;;5062227;28;20297;-36
2023/12/23 01:17:55;;;;;;;;;;;5.90;99.90;;;;;;5066363;28;19957;-35
2023/12/23 01:20:22;;;;;;;;;;;5.80;99.90;;;;;;5057494;28;20462;-33
2023/12/23 01:22:48;;;;;;;;;;;5.90;99.90;;;;;;5090515;28;19962;-33
2023/12/23 01:25:15;;;;;;;;;;;5.90;99.90;;;;;;5097226;28;20008;-34
2023/12/23 01:27:42;;;;;;;;;;;5.90;99.90;;;;;;5088309;28;19932;-34
2023/12/23 01:30:10;;;;;;;;;;;6.00;99.90;;;;;;5085308;28;20395;-35
2023/12/23 01:32:37;;;;;;;;;;;6.00;99.90;;;;;;5085079;28;19928;-33
2023/12/23 01:35:04;;;;;;;;;;;6.00;99.90;;;;;;5090579;28;19936;-34
2023/12/23 01:37:31;;;;;;;;;;;6.00;99.90;;;;;;5104292;28;19977;-35
2023/12/23 01:39:57;;;;;;;;;;;6.00;99.90;;;;;;5088763;28;19940;-34
2023/12/23 01:42:24;;;;;;;;;;;6.00;99.90;;;;;;5101527;28;20389;-35
2023/12/23 01:44:50;;;;;;;;;;;6.10;99.90;;;;;;5093279;28;19993;-34
2023/12/23 01:47:18;;;;;;;;;;;6.00;99.90;;;;;;5095631;28;19938;-35
2023/12/23 01:49:45;;;;;;;;;;;6.00;99.90;;;;;;5093447;28;19948;-35
2023/12/23 01:52:12;;;;;;;;;;;6.00;99.90;;;;;;5097427;28;19989;-33
2023/12/23 01:54:38;;;;;;;;;;;6.00;99.90;;;;;;5075970;28;19956;-34
2023/12/23 01:57:04;;;;;;;;;;;6.00;99.90;;;;;;5093981;28;20365;-35
2023/12/23 01:59:30;;;;;;;;;;;6.00;99.90;;;;;;5109631;28;19945;-35
2023/12/23 02:01:57;;;;;;;;;;;6.00;99.90;;;;;;5094587;28;19973;-34
2023/12/23 02:04:25;;;;;;;;;;;6.00;99.90;;;;;;5094317;28;19989;-35
2023/12/23 02:06:52;;;;;;;;;;;6.00;99.90;;;;;;5077498;28;19941;-35
2023/12/23 02:09:18;;;;;;;;;;;6.00;99.90;;;;;;5097029;28;19938;-35
2023/12/23 02:11:55;;;;;;;;;;;6.00;99.90;;;;;;5077850;28;19943;-34
2023/12/23 02:14:24;;;;;;;;;;;6.00;99.90;;;;;;5081696;28;19950;-34
2023/12/23 02:16:51;;;;;;;;;;;6.00;99.90;;;;;;5094301;28;19960;-35
2023/12/23 02:19:17;;;;;;;;;;;6.00;99.90;;;;;;5095752;28;19949;-34
2023/12/23 02:21:45;;;;;;;;;;;6.10;99.90;;;;;;5101007;28;19966;-33
2023/12/23 02:24:12;;;;;;;;;;;6.00;99.90;;;;;;5074505;28;19995;-33
2023/12/23 02:26:38;;;;;;;;;;;6.10;99.90;;;;;;5092351;28;19999;-33
2023/12/23 02:29:05;;;;;;;;;;;6.10;99.90;;;;;;5093614;28;19942;-36
2023/12/23 02:31:32;;;;;;;;;;;6.00;99.90;;;;;;5072924;28;19939;-35
2023/12/23 02:33:59;;;;;;;;;;;6.10;99.90;;;;;;5075301;28;20049;-33
2023/12/23 02:36:25;;;;;;;;;;;6.10;99.90;;;;;;5093029;28;20415;-33
2023/12/23 02:38:53;;;;;;;;;;;6.00;99.90;;;;;;5089393;28;20030;-35
2023/12/23 02:41:20;;;;;;;;;;;6.00;99.90;;;;;;5092490;28;19946;-34
2023/12/23 02:43:47;;;;;;;;;;;6.00;99.90;;;;;;5073173;28;19940;-34
2023/12/23 02:46:13;;;;;;;;;;;5.90;99.90;;;;;;5092590;28;19928;-35
2023/12/23 02:48:40;;;;;;;;;;;6.00;99.90;;;;;;5093353;28;20339;-34
2023/12/23 02:51:07;;;;;;;;;;;6.00;99.90;;;;;;5091400;28;19989;-34
2023/12/23 02:53:33;;;;;;;;;;;5.90;99.90;;;;;;5074154;28;19956;-34
2023/12/23 02:56:01;;;;;;;;;;;5.90;99.90;;;;;;5073670;28;19942;-34
2023/12/23 02:58:28;;;;;;;;;;;5.90;99.90;;;;;;5074273;28;19979;-34
2023/12/23 03:00:54;;;;;;;;;;;5.80;99.90;;;;;;5073853;28;20352;-35
2023/12/23 03:03:21;;;;;;;;;;;5.80;99.90;;;;;;5075208;28;19994;-34
2023/12/23 03:05:48;;;;;;;;;;;5.80;99.90;;;;;;5092192;28;19938;-34
2023/12/23 03:08:14;;;;;;;;;;;5.80;99.90;;;;;;5091713;28;19946;-34
2023/12/23 03:10:41;;;;;;;;;;;5.80;99.90;;;;;;5091740;28;19943;-33
2023/12/23 03:13:09;;;;;;;;;;;5.80;99.90;;;;;;5091901;28;20356;-35
2023/12/23 03:15:36;;;;;;;;;;;5.80;99.90;;;;;;5074530;28;19937;-35
2023/12/23 03:18:02;;;;;;;;;;;5.80;99.90;;;;;;5073655;28;20290;-33
2023/12/23 03:20:29;;;;;;;;;;;5.80;99.90;;;;;;5074124;28;20391;-34
2023/12/23 03:22:56;;;;;;;;;;;5.80;99.90;;;;;;5092421;28;20061;-35
2023/12/23 03:25:23;;;;;;;;;;;5.80;99.90;;;;;;5072241;28;20036;-34
2023/12/23 03:27:49;;;;;;;;;;;5.80;99.90;;;;;;5074901;28;19967;-32
2023/12/23 03:30:17;;;;;;;;;;;5.80;99.90;;;;;;5074772;28;20409;-34
2023/12/23 03:32:44;;;;;;;;;;;5.80;99.90;;;;;;5090895;28;20404;-33
2023/12/23 03:35:11;;;;;;;;;;;5.70;99.90;;;;;;5071085;28;20037;-34
2023/12/23 03:37:37;;;;;;;;;;;5.70;99.90;;;;;;5072889;28;19942;-33
2023/12/23 03:40:07;;;;;;;;;;;5.80;99.90;;;;;;5073809;28;19994;-33
2023/12/23 03:42:33;;;;;;;;;;;5.80;99.90;;;;;;5074149;28;19938;-35
2023/12/23 03:45:00;;;;;;;;;;;5.80;99.90;;;;;;5091439;28;19928;-33
2023/12/23 03:47:28;;;;;;;;;;;5.80;99.90;;;;;;5072777;28;20000;-33
2023/12/23 03:49:55;;;;;;;;;;;5.70;99.90;;;;;;5074875;28;19940;-35
2023/12/23 03:52:22;;;;;;;;;;;5.80;99.90;;;;;;5073215;28;20360;-34
2023/12/23 03:54:48;;;;;;;;;;;5.70;99.90;;;;;;5069526;28;19959;-33
2023/12/23 03:57:15;;;;;;;;;;;5.70;99.90;;;;;;5072909;28;19967;-35
2023/12/23 03:59:42;;;;;;;;;;;5.80;99.90;;;;;;5073915;28;19938;-34
2023/12/23 04:02:08;;;;;;;;;;;5.80;99.90;;;;;;5073824;28;19944;-33
2023/12/23 04:04:39;;;;;;;;;;;5.80;99.90;;;;;;5073856;28;19928;-33
2023/12/23 04:07:05;;;;;;;;;;;5.80;99.90;;;;;;5091999;28;20416;-34
2023/12/23 04:09:32;;;;;;;;;;;5.80;99.90;;;;;;5073889;28;19944;-35
2023/12/23 04:11:59;;;;;;;;;;;5.80;99.90;;;;;;5073539;28;19999;-35
2023/12/23 04:14:25;;;;;;;;;;;5.70;99.90;;;;;;5073287;28;20375;-34
2023/12/23 04:16:52;;;;;;;;;;;5.80;99.90;;;;;;5090628;28;19940;-37
2023/12/23 04:19:18;;;;;;;;;;;5.80;99.90;;;;;;5072995;28;19989;-34
2023/12/23 04:21:46;;;;;;;;;;;5.80;99.90;;;;;;5090949;28;19962;-34
2023/12/23 04:24:13;;;;;;;;;;;5.80;99.90;;;;;;5072251;28;19995;-32
2023/12/23 04:26:40;;;;;;;;;;;5.80;99.90;;;;;;5070384;28;20356;-35
2023/12/23 04:29:05;;;;;;;;;;;5.80;99.90;;;;;;5064209;28;19936;-35
2023/12/23 04:31:32;;;;;;;;;;;5.80;99.90;;;;;;5080297;28;19936;-33
2023/12/23 04:33:59;;;;;;;;;;;5.80;99.90;;;;;;5068802;28;19924;-34
2023/12/23 04:36:26;;;;;;;;;;;5.80;99.90;;;;;;5077786;28;20033;-33
2023/12/23 04:38:54;;;;;;;;;;;5.80;99.90;;;;;;5088575;28;19937;-34
2023/12/23 04:41:20;;;;;;;;;;;5.80;99.90;;;;;;5073284;28;19983;-34
2023/12/23 04:43:47;;;;;;;;;;;5.80;99.90;;;;;;5062387;28;19944;-34
2023/12/23 04:46:13;;;;;;;;;;;5.80;99.90;;;;;;5071874;28;19993;-34
2023/12/23 04:48:40;;;;;;;;;;;5.90;99.90;;;;;;5071667;28;19943;-34
2023/12/23 04:51:07;;;;;;;;;;;5.80;99.90;;;;;;5073283;28;19938;-35
2023/12/23 04:53:33;;;;;;;;;;;5.90;99.90;;;;;;5090903;28;19993;-33
2023/12/23 04:56:01;;;;;;;;;;;5.90;99.90;;;;;;5092236;28;20000;-34
2023/12/23 04:58:28;;;;;;;;;;;5.90;99.90;;;;;;5061829;28;19942;-35
2023/12/23 05:00:54;;;;;;;;;;;5.90;99.90;;;;;;5060124;28;20287;-33
2023/12/23 05:03:21;;;;;;;;;;;5.90;99.90;;;;;;5070325;28;20448;-34
2023/12/23 05:05:48;;;;;;;;;;;5.90;99.90;;;;;;5090006;28;19940;-35
2023/12/23 05:08:16;;;;;;;;;;;5.90;99.90;;;;;;5070032;28;19936;-34
2023/12/23 05:10:43;;;;;;;;;;;5.90;99.90;;;;;;5064916;28;20039;-34
2023/12/23 05:13:11;;;;;;;;;;;5.90;99.90;;;;;;5070533;28;19940;-33
2023/12/23 05:15:37;;;;;;;;;;;5.90;99.90;;;;;;5092012;28;20061;-33
2023/12/23 05:18:04;;;;;;;;;;;6.00;99.90;;;;;;5088338;28;20314;-34
2023/12/23 05:20:31;;;;;;;;;;;5.90;99.90;;;;;;5087720;28;19995;-33
2023/12/23 05:22:58;;;;;;;;;;;6.00;99.90;;;;;;5089597;28;20380;-35
2023/12/23 05:25:24;;;;;;;;;;;6.00;99.90;;;;;;5075623;28;19990;-33
2023/12/23 05:27:51;;;;;;;;;;;6.00;99.90;;;;;;5058642;28;19943;-34
2023/12/23 05:30:19;;;;;;;;;;;6.00;99.90;;;;;;5066965;28;20026;-33
2023/12/23 05:32:46;;;;;;;;;;;6.00;99.90;;;;;;5074634;28;19924;-33
2023/12/23 05:35:12;;;;;;;;;;;6.00;99.90;;;;;;5055789;28;19956;-33
2023/12/23 05:37:39;;;;;;;;;;;6.00;99.90;;;;;;5075942;28;19992;-33
2023/12/23 05:40:06;;;;;;;;;;;6.00;99.90;;;;;;5088304;28;20351;-32
2023/12/23 05:42:33;;;;;;;;;;;6.10;99.90;;;;;;5053182;28;19946;-34
2023/12/23 05:45:00;;;;;;;;;;;6.20;99.90;;;;;;5045698;28;19941;-34
2023/12/23 05:47:29;;;;;;;;;;;6.30;99.90;;;;;;5080148;28;19939;-36
2023/12/23 05:49:57;;;;;;;;;;;6.40;99.90;;;;;;5056960;28;19941;-33
2023/12/23 05:52:23;;;;;;;;;;;6.60;99.90;;;;;;5049211;28;19940;-34
2023/12/23 05:54:50;;;;;;;;;;;6.70;99.90;;;;;;5082381;28;20012;-33
2023/12/23 05:57:17;;;;;;;;;;;7.00;99.90;;;;;;5086345;28;19924;-34
2023/12/23 05:59:44;;;;;;;;;;;7.20;99.90;;;;;;5079053;28;19946;-34
2023/12/23 06:02:10;;;;;;;;;;;7.50;99.90;;;;;;5068434;28;19940;-34
2023/12/23 06:04:38;;;;;;;;;;;7.70;99.90;;;;;;5054451;28;20030;-34
2023/12/23 06:07:05;;;;;;;;;;;7.80;99.90;;;;;;5054248;28;19942;-33
2023/12/23 06:09:31;;;;;;;;;;;7.90;99.90;;;;;;5091801;28;19966;-34
2023/12/23 06:11:58;;;;;;;;;;;8.00;99.90;;;;;;5067810;28;19948;-34
2023/12/23 06:14:25;;;;;;;;;;;8.10;99.90;;;;;;5050204;28;19962;-35
2023/12/23 06:16:52;;;;;;;;;;;8.20;99.90;;;;;;5071255;28;19940;-34
2023/12/23 06:19:18;;;;;;;;;;;8.20;99.90;;;;;;5074109;28;19938;-32
2023/12/23 06:21:46;;;;;;;;;;;8.30;99.90;;;;;;5093464;28;20452;-33
2023/12/23 06:24:13;;;;;;;;;;;8.30;99.90;;;;;;5083553;28;19990;-34
2023/12/23 06:26:40;;;;;;;;;;;8.30;99.90;;;;;;5073717;28;19939;-34
2023/12/23 06:29:06;;;;;;;;;;;8.40;99.90;;;;;;5076873;28;19940;-34
2023/12/23 06:31:33;;;;;;;;;;;8.50;99.90;;;;;;5102257;28;20308;-34
2023/12/23 06:34:00;;;;;;;;;;;8.50;99.90;;;;;;5092650;28;20349;-36
2023/12/23 06:36:26;;;;;;;;;;;8.50;99.90;;;;;;5084916;28;19962;-36
2023/12/23 06:38:54;;;;;;;;;;;8.60;99.90;;;;;;5109671;28;19943;-34
2023/12/23 06:41:21;;;;;;;;;;;8.60;99.90;;;;;;5085829;28;19984;-35
2023/12/23 06:43:47;;;;;;;;;;;8.70;99.90;;;;;;5075980;28;19940;-35
2023/12/23 06:46:14;;;;;;;;;;;8.80;99.90;;;;;;5084609;28;19943;-34
2023/12/23 06:48:41;;;;;;;;;;;8.80;99.90;;;;;;5084198;28;20027;-34
2023/12/23 06:51:07;;;;;;;;;;;8.80;99.90;;;;;;5076480;28;20421;-35
2023/12/23 06:53:34;;;;;;;;;;;8.90;99.90;;;;;;5096689;28;19989;-34
2023/12/23 06:56:04;;;;;;;;;;;8.90;99.90;;;;;;5088534;28;20003;-35
2023/12/23 06:58:30;;;;;;;;;;;8.90;99.90;;;;;;5084481;28;19939;-35
2023/12/23 07:00:57;;;;;;;;;;;8.90;99.90;;;;;;5087710;28;20001;-34
2023/12/23 07:03:24;;;;;;;;;;;8.90;99.90;;;;;;5095383;28;19983;-35
2023/12/23 07:05:50;;;;;;;;;;;8.90;99.90;;;;;;5098056;28;20034;-35
2023/12/23 07:08:17;;;;;;;;;;;9.00;99.90;;;;;;5092157;28;20336;-35
2023/12/23 07:10:44;;;;;;;;;;;9.00;99.90;;;;;;5094252;28;20046;-34
2023/12/23 07:13:12;;;;;;;;;;;8.90;99.90;;;;;;5076866;28;19937;-33
2023/12/23 07:15:38;;;;;;;;;;;9.00;99.90;;;;;;5075314;28;20010;-33
2023/12/23 07:18:09;;;;;;;;;;;9.00;99.90;;;;;;5086924;28;20017;-33
2023/12/23 07:20:41;;;;;;;;;;;9.00;99.90;;;;;;5091628;28;20300;-34
2023/12/23 07:23:08;;;;;;;;;;;9.00;99.90;;;;;;5084342;28;19940;-34
2023/12/23 07:25:34;;;;;;;;;;;9.00;99.90;;;;;;5073983;28;20324;-34
2023/12/23 07:28:01;;;;;;;;;;;9.10;99.90;;;;;;5075775;28;20382;-34
2023/12/23 07:30:29;;;;;;;;;;;9.10;99.90;;;;;;5089973;28;20037;-34
2023/12/23 07:32:56;;;;;;;;;;;9.10;99.90;;;;;;5091689;28;19940;-34
2023/12/23 07:35:22;;;;;;;;;;;9.10;99.90;;;;;;5079070;28;19957;-34
2023/12/23 07:37:50;;;;;;;;;;;9.00;99.90;;;;;;5085271;28;20371;-35
2023/12/23 07:40:16;;;;;;;;;;;9.10;99.90;;;;;;5067961;28;20292;-34
2023/12/23 07:42:43;;;;;;;;;;;9.10;99.90;;;;;;5078060;28;19996;-35
2023/12/23 07:45:11;;;;;;;;;;;9.10;99.90;;;;;;5071780;28;19936;-35
2023/12/23 07:47:39;;;;;;;;;;;9.10;99.90;;;;;;5074856;28;19996;-33
2023/12/23 07:50:06;;;;;;;;;;;9.10;99.90;;;;;;5073567;28;20064;-34
2023/12/23 07:52:33;;;;;;;;;;;9.10;99.90;;;;;;5071310;28;19986;-35
2023/12/23 07:54:59;;;;;;;;;;;9.20;99.90;;;;;;5077391;28;20437;-35
2023/12/23 07:57:26;;;;;;;;;;;9.20;99.90;;;;;;5080875;28;21762;-34
2023/12/23 07:59:53;;;;;;;;;;;9.20;99.90;;;;;;5074694;28;19949;-35
2023/12/23 08:02:20;;;;;;;;;;;9.20;99.90;;;;;;5073700;28;19938;-34
2023/12/23 08:04:48;;;;;;;;;;;9.20;99.90;;;;;;5092695;28;19947;-35
2023/12/23 08:07:14;;;;;;;;;;;9.20;99.90;;;;;;5094344;28;19998;-35
2023/12/23 08:09:41;;;;;;;;;;;9.20;99.90;;;;;;5096660;28;19938;-34
2023/12/23 08:12:08;;;;;;;;;;;9.20;99.90;;;;;;5080019;28;19948;-34
2023/12/23 08:14:35;;;;;;;;;;;9.00;99.90;;;;;;5078863;28;20305;-35
2023/12/23 08:17:01;;;;;;;;;;;8.80;99.90;;;;;;5080229;28;19981;-34
2023/12/23 08:19:28;;;;;;;;;;;8.60;99.90;;;;;;5073179;28;19987;-34
2023/12/23 08:21:56;;;;;;;;;;;8.50;99.90;;;;;;5075981;28;19959;-35
2023/12/23 08:24:22;;;;;;;;;;;8.60;99.90;;;;;;5073526;28;19938;-35
2023/12/23 08:26:49;;;;;;;;;;;8.50;99.90;;;;;;5092091;28;19944;-34
2023/12/23 08:29:16;;;;;;;;;;;8.40;99.90;;;;;;5074035;28;19940;-33
2023/12/23 08:31:43;;;;;;;;;;;8.40;99.90;;;;;;5087151;28;19999;-35
2023/12/23 08:34:10;;;;;;;;;;;8.30;99.90;;;;;;5091128;28;20296;-34
2023/12/23 08:36:36;;;;;;;;;;;8.20;99.90;;;;;;5081739;28;20041;-33
2023/12/23 08:39:04;;;;;;;;;;;8.20;99.90;;;;;;5076227;28;20005;-34
2023/12/23 08:41:31;;;;;;;;;;;8.10;99.90;;;;;;5075472;28;19946;-35
2023/12/23 08:43:58;;;;;;;;;;;7.90;99.90;;;;;;5079104;28;19978;-33
2023/12/23 08:46:24;;;;;;;;;;;7.90;99.90;;;;;;5106245;28;20032;-35
2023/12/23 08:48:51;;;;;;;;;;;7.80;99.90;;;;;;5090277;28;19940;-35
2023/12/23 08:51:17;;;;;;;;;;;7.70;99.90;;;;;;5094751;28;20342;-35
2023/12/23 08:53:44;;;;;;;;;;;7.50;99.90;;;;;;5095109;28;19992;-34
2023/12/23 08:56:12;;;;;;;;;;;7.40;99.90;;;;;;5098102;28;19960;-34
2023/12/23 08:58:39;;;;;;;;;;;7.40;99.90;;;;;;5098259;28;19938;-34
2023/12/23 09:01:05;;;;;;;;;;;7.20;99.90;;;;;;5106650;28;20005;-34
2023/12/23 09:03:32;;;;;;;;;;;7.10;99.90;;;;;;5082760;28;19996;-35
2023/12/23 09:05:59;;;;;;;;;;;7.10;99.90;;;;;;5096113;28;20301;-34
2023/12/23 09:08:25;;;;;;;;;;;6.90;99.90;;;;;;4913986;22;20559;-34
2023/12/23 09:10:52;;;;;;;;;;;6.90;99.90;;;;;;5070631;28;19954;-33
2023/12/23 09:13:20;;;;;;;;;;;7.00;99.90;;;;;;5095048;28;19950;-36
2023/12/23 09:15:47;;;;;;;;;;;6.90;99.90;;;;;;5092557;28;19993;-34
2023/12/23 09:18:13;;;;;;;;;;;6.90;99.90;;;;;;5076614;28;19941;-34
2023/12/23 09:20:40;;;;;;;;;;;6.90;99.90;;;;;;5095006;28;20000;-34
2023/12/23 09:23:07;;;;;;;;;;;6.90;99.90;;;;;;5077346;28;20348;-34
2023/12/23 09:25:34;;;;;;;;;;;6.90;99.90;;;;;;5076791;28;19982;-34
2023/12/23 09:28:00;;;;;;;;;;;7.00;99.90;;;;;;5076264;28;19941;-34
2023/12/23 09:30:28;;;;;;;;;;;6.90;99.90;;;;;;5094357;28;19953;-34
2023/12/23 09:32:55;;;;;;;;;;;6.90;99.90;;;;;;5095466;28;20308;-33
2023/12/23 09:35:21;;;;;;;;;;;6.90;99.90;;;;;;5077144;28;19958;-34
2023/12/23 09:37:48;;;;;;;;;;;6.90;99.90;;;;;;5076925;28;19939;-35
2023/12/23 09:40:15;;;;;;;;;;;6.90;99.90;;;;;;5094845;28;19944;-35
2023/12/23 09:42:42;;;;;;;;;;;6.90;99.90;;;;;;5094673;28;20068;-34
2023/12/23 09:45:09;;;;;;;;;;;7.00;99.90;;;;;;5093877;28;20210;-34
2023/12/23 09:47:37;;;;;;;;;;;6.90;99.90;;;;;;5095160;28;19943;-34
2023/12/23 09:50:04;;;;;;;;;;;6.90;99.90;;;;;;5077130;28;20042;-34
2023/12/23 09:52:31;;;;;;;;;;;6.90;99.90;;;;;;5076953;28;19924;-35
2023/12/23 09:54:58;;;;;;;;;;;7.00;99.90;;;;;;5076418;28;19940;-34
2023/12/23 09:57:24;;;;;;;;;;;7.00;99.90;;;;;;5094316;28;20374;-34
2023/12/23 09:59:52;;;;;;;;;;;7.00;99.90;;;;;;5076748;28;19934;-34
2023/12/23 10:02:18;;;;;;;;;;;7.00;99.90;;;;;;5076502;28;19946;-35
2023/12/23 10:04:46;;;;;;;;;;;7.00;99.90;;;;;;5093938;28;19940;-34
2023/12/23 10:07:14;;;;;;;;;;;7.00;99.90;;;;;;5094815;28;19999;-34
2023/12/23 10:09:41;;;;;;;;;;;7.00;99.90;;;;;;5075331;28;20376;-34
2023/12/23 10:12:08;;;;;;;;;;;7.00;99.90;;;;;;5091286;28;19937;-34
2023/12/23 10:14:34;;;;;;;;;;;7.00;99.90;;;;;;5090266;28;19937;-34
2023/12/23 10:17:01;;;;;;;;;;;7.00;99.90;;;;;;5075206;28;19939;-34
2023/12/23 10:19:28;;;;;;;;;;;7.00;99.90;;;;;;5075384;28;19934;-34
2023/12/23 10:21:56;;;;;;;;;;;7.00;99.90;;;;;;5076486;28;20002;-34
2023/12/23 10:24:22;;;;;;;;;;;7.20;99.90;;;;;;5075975;28;19989;-35
2023/12/23 10:26:50;;;;;;;;;;;7.10;99.90;;;;;;5092567;28;19942;-36
2023/12/23 10:29:17;;;;;;;;;;;7.20;99.90;;;;;;5093225;28;19943;-34
2023/12/23 10:31:43;;;;;;;;;;;7.20;99.90;;;;;;5074123;28;19942;-34
2023/12/23 10:34:12;;;;;;;;;;;7.30;99.90;;;;;;5093866;28;19956;-35
2023/12/23 10:36:38;;;;;;;;;;;7.40;99.90;;;;;;5093487;28;19954;-35
2023/12/23 10:39:10;;;;;;;;;;;7.60;99.90;;;;;;5075528;28;19946;-34
2023/12/23 10:41:38;;;;;;;;;;;7.80;99.90;;;;;;5075386;28;19946;-34
2023/12/23 10:44:05;;;;;;;;;;;7.90;99.90;;;;;;5091939;28;19957;-34
2023/12/23 10:46:32;;;;;;;;;;;8.10;99.90;;;;;;5074744;28;19941;-35
2023/12/23 10:48:58;;;;;;;;;;;8.20;99.90;;;;;;5084733;28;20012;-34
2023/12/23 10:51:25;;;;;;;;;;;8.30;99.90;;;;;;5075948;28;19942;-35
2023/12/23 10:53:52;;;;;;;;;;;8.40;99.90;;;;;;5093849;28;20272;-34
2023/12/23 10:56:20;;;;;;;;;;;8.50;99.90;;;;;;5075748;28;19974;-34
2023/12/23 10:58:46;;;;;;;;;;;8.70;99.90;;;;;;5074973;28;19939;-34
2023/12/23 11:01:13;;;;;;;;;;;8.70;99.90;;;;;;5093251;28;19937;-35
2023/12/23 11:03:40;;;;;;;;;;;8.80;99.90;;;;;;5093327;28;19937;-34
2023/12/23 11:06:07;;;;;;;;;;;8.80;99.90;;;;;;5073713;28;19970;-34
2023/12/23 11:08:34;;;;;;;;;;;8.90;99.90;;;;;;5074610;28;20390;-34
2023/12/23 11:11:00;;;;;;;;;;;8.90;99.90;;;;;;5067371;28;19941;-34
2023/12/23 11:13:30;;;;;;;;;;;9.00;99.90;;;;;;5092009;28;21663;-34
2023/12/23 11:15:57;;;;;;;;;;;9.10;99.90;;;;;;5072857;28;19978;-35
2023/12/23 11:18:23;;;;;;;;;;;9.10;99.90;;;;;;5073043;28;19944;-37
2023/12/23 11:20:50;;;;;;;;;;;9.10;99.90;;;;;;5092153;28;19938;-35
2023/12/23 11:23:33;;;;;;;;;;;9.10;99.90;;;;;;5074216;28;19948;-34
2023/12/23 11:26:00;;;;;;;;;;;9.20;99.90;;;;;;5072575;28;19939;-35
2023/12/23 11:28:27;;;;;;;;;;;9.20;99.90;;;;;;5090273;28;19972;-35
2023/12/23 11:30:55;;;;;;;;;;;9.30;99.90;;;;;;5073931;28;19980;-35
2023/12/23 11:33:21;;;;;;;;;;;9.30;99.90;;;;;;5073771;28;19936;-35
2023/12/23 11:35:48;;;;;;;;;;;9.30;99.90;;;;;;5073796;28;19994;-34
2023/12/23 11:38:15;;;;;;;;;;;9.30;99.90;;;;;;5074069;28;19937;-36
2023/12/23 11:40:41;;;;;;;;;;;9.30;99.90;;;;;;5073299;28;19936;-34
2023/12/23 11:43:08;;;;;;;;;;;9.30;99.90;;;;;;5073986;28;19988;-35
2023/12/23 11:45:35;;;;;;;;;;;9.30;99.90;;;;;;5074681;28;19981;-35
2023/12/23 11:48:03;;;;;;;;;;;9.30;99.90;;;;;;5092768;28;19942;-34
2023/12/23 11:50:29;;;;;;;;;;;9.30;99.90;;;;;;5074982;28;19944;-35
2023/12/23 11:52:56;;;;;;;;;;;9.30;99.90;;;;;;5091797;28;20397;-35
2023/12/23 11:55:23;;;;;;;;;;;9.30;99.90;;;;;;5074649;28;19956;-36
2023/12/23 11:57:49;;;;;;;;;;;9.30;99.90;;;;;;5074506;28;19932;-34
2023/12/23 12:00:16;;;;;;;;;;;9.40;99.90;;;;;;5092442;28;20054;-36
2023/12/23 12:02:43;;;;;;;;;;;9.40;99.90;;;;;;5073979;28;20391;-34
2023/12/23 12:05:12;;;;;;;;;;;9.40;99.90;;;;;;5073435;28;19934;-34
2023/12/23 12:07:38;;;;;;;;;;;9.40;99.90;;;;;;5074345;28;19940;-34
2023/12/23 12:10:08;;;;;;;;;;;9.50;99.90;;;;;;5073949;28;19962;-34
2023/12/23 12:12:35;;;;;;;;;;;9.50;99.90;;;;;;5075090;28;19936;-36
2023/12/23 12:15:02;;;;;;;;;;;9.50;99.90;;;;;;5073947;28;20034;-34
2023/12/23 12:17:29;;;;;;;;;;;9.60;99.90;;;;;;5069781;28;20002;-33
2023/12/23 12:19:55;;;;;;;;;;;9.60;99.90;;;;;;5092489;28;19988;-35
2023/12/23 12:22:23;;;;;;;;;;;9.60;99.90;;;;;;5092354;28;19940;-37
2023/12/23 12:24:50;;;;;;;;;;;9.60;99.90;;;;;;5091719;28;19940;-34
2023/12/23 12:27:17;;;;;;;;;;;9.70;99.90;;;;;;5092051;28;19937;-33
2023/12/23 12:29:43;;;;;;;;;;;9.70;99.90;;;;;;5078243;28;19986;-34
2023/12/23 12:32:11;;;;;;;;;;;9.70;99.90;;;;;;5078110;28;19939;-35
2023/12/23 12:34:38;;;;;;;;;;;9.70;99.90;;;;;;5078065;28;19946;-34
2023/12/23 12:37:04;;;;;;;;;;;9.70;99.90;;;;;;5077911;28;20004;-34
2023/12/23 12:39:32;;;;;;;;;;;9.80;99.90;;;;;;5078370;28;19940;-34
2023/12/23 12:41:59;;;;;;;;;;;9.80;99.90;;;;;;5096642;28;20315;-35
2023/12/23 12:44:25;;;;;;;;;;;9.70;99.90;;;;;;5077521;28;19944;-35
2023/12/23 12:46:52;;;;;;;;;;;9.70;99.90;;;;;;5096349;28;20318;-36
2023/12/23 12:49:22;;;;;;;;;;;9.70;99.90;;;;;;5078208;28;19941;-35
2023/12/23 12:51:48;;;;;;;;;;;9.70;99.90;;;;;;5077608;28;19935;-35
2023/12/23 12:54:16;;;;;;;;;;;9.70;99.90;;;;;;5077646;28;19986;-35
2023/12/23 12:56:44;;;;;;;;;;;9.70;99.90;;;;;;5078106;28;19928;-35
2023/12/23 12:59:10;;;;;;;;;;;9.60;99.90;;;;;;5077953;28;19987;-34
2023/12/23 13:01:37;;;;;;;;;;;9.60;99.90;;;;;;5076106;28;20382;-35
2023/12/23 13:04:04;;;;;;;;;;;9.60;99.90;;;;;;5077737;28;20014;-36
2023/12/23 13:06:30;;;;;;;;;;;9.60;99.90;;;;;;5077974;28;19988;-34
2023/12/23 13:08:57;;;;;;;;;;;9.60;99.90;;;;;;5077661;28;19960;-36
2023/12/23 13:11:23;;;;;;;;;;;9.60;99.90;;;;;;5076891;28;19942;-35
2023/12/23 13:13:51;;;;;;;;;;;9.60;99.90;;;;;;5076540;28;19942;-34
2023/12/23 13:16:18;;;;;;;;;;;9.60;99.90;;;;;;5077173;28;20393;-34
2023/12/23 13:18:45;;;;;;;;;;;9.60;99.90;;;;;;5077847;28;19942;-36
2023/12/23 13:21:12;;;;;;;;;;;9.60;99.90;;;;;;5077449;28;19940;-35
2023/12/23 13:23:39;;;;;;;;;;;9.60;99.90;;;;;;5077618;28;20443;-34
2023/12/23 13:26:05;;;;;;;;;;;9.70;99.90;;;;;;5077489;28;19940;-35
2023/12/23 13:28:32;;;;;;;;;;;9.70;99.90;;;;;;5077287;28;19977;-34
2023/12/23 13:31:00;;;;;;;;;;;9.70;99.90;;;;;;5095108;28;19937;-34
2023/12/23 13:33:28;;;;;;;;;;;9.70;99.90;;;;;;5077117;28;19953;-35
2023/12/23 13:35:55;;;;;;;;;;;9.80;99.90;;;;;;5077135;28;19939;-35
2023/12/23 13:38:23;;;;;;;;;;;9.70;99.90;;;;;;5076288;28;20004;-35
2023/12/23 13:40:50;;;;;;;;;;;9.70;99.90;;;;;;5075675;28;19960;-35
2023/12/23 13:43:17;;;;;;;;;;;9.80;99.90;;;;;;5077140;28;20388;-36
2023/12/23 13:45:43;;;;;;;;;;;9.80;99.90;;;;;;5077333;28;19941;-35
2023/12/23 13:48:11;;;;;;;;;;;9.80;99.90;;;;;;5076901;28;19936;-37
2023/12/23 13:50:38;;;;;;;;;;;9.70;99.90;;;;;;5094850;28;19943;-34
2023/12/23 13:53:05;;;;;;;;;;;9.70;99.90;;;;;;5077271;28;19947;-34
2023/12/23 13:55:31;;;;;;;;;;;9.80;99.90;;;;;;5077481;28;20384;-36
2023/12/23 13:57:58;;;;;;;;;;;9.80;99.90;;;;;;5076471;28;20007;-35
2023/12/23 14:00:25;;;;;;;;;;;9.80;99.90;;;;;;5094288;28;19935;-35
2023/12/23 14:02:51;;;;;;;;;;;9.80;99.90;;;;;;5076118;28;19946;-38
2023/12/23 14:05:19;;;;;;;;;;;9.80;99.90;;;;;;5076382;28;19986;-36
2023/12/23 14:07:46;;;;;;;;;;;9.70;99.90;;;;;;5076654;28;19984;-36
2023/12/23 14:10:13;;;;;;;;;;;9.70;99.90;;;;;;5064177;28;19964;-34
2023/12/23 14:12:39;;;;;;;;;;;9.70;99.90;;;;;;5074433;28;19940;-34
2023/12/23 14:15:06;;;;;;;;;;;9.60;99.90;;;;;;5068271;28;19933;-35
2023/12/23 14:17:33;;;;;;;;;;;9.70;99.90;;;;;;5076614;28;19960;-34
2023/12/23 14:20:00;;;;;;;;;;;9.60;99.90;;;;;;5076435;28;19937;-33
2023/12/23 14:22:28;;;;;;;;;;;9.60;99.90;;;;;;5076430;28;19938;-35
2023/12/23 14:24:55;;;;;;;;;;;9.50;99.90;;;;;;5076354;28;19946;-35
2023/12/23 14:27:22;;;;;;;;;;;9.50;99.90;;;;;;5076517;28;19989;-35
2023/12/23 14:29:49;;;;;;;;;;;9.40;99.90;;;;;;5074926;28;19942;-34